createdAt,value
2018-07-06T00:01:49.316Z,1.67
2018-07-06T00:04:34.783Z,1.67
2018-07-06T00:07:21.280Z,1.70
2018-07-06T00:10:06.682Z,1.63
2018-07-06T00:12:46.274Z,1.60
2018-07-06T00:15:31.791Z,1.73
2018-07-06T00:18:17.167Z,1.80
2018-07-06T00:21:02.648Z,2.13
2018-07-06T00:23:48.222Z,1.70
2018-07-06T00:26:33.404Z,2.03
2018-07-06T00:29:12.905Z,1.70
2018-07-06T00:31:52.491Z,2.30
2018-07-06T00:34:37.961Z,2.00
2018-07-06T00:37:23.335Z,2.83
2018-07-06T00:40:08.614Z,2.70
2018-07-06T00:42:54.011Z,2.83
2018-07-06T00:45:39.361Z,2.03
2018-07-06T00:48:24.812Z,2.53
2018-07-06T00:51:10.253Z,2.50
2018-07-06T00:53:55.543Z,2.30
2018-07-06T00:56:40.943Z,2.37
2018-07-06T00:59:26.505Z,2.90
2018-07-06T01:02:11.925Z,3.00
2018-07-06T01:04:57.409Z,3.00
2018-07-06T01:07:43.838Z,2.90
2018-07-06T01:10:23.130Z,2.93
2018-07-06T01:13:08.470Z,2.67
2018-07-06T01:15:53.853Z,2.60
2018-07-06T01:18:39.425Z,3.03
2018-07-06T01:21:24.682Z,3.23
2018-07-06T01:24:09.925Z,3.53
2018-07-06T01:26:55.095Z,4.17
2018-07-06T01:29:40.567Z,3.83
2018-07-06T01:32:25.977Z,3.70
2018-07-06T01:35:11.517Z,3.83
2018-07-06T01:37:57.063Z,4.23
2018-07-06T01:40:42.505Z,4.03
2018-07-06T01:43:28.018Z,4.60
2018-07-06T01:46:13.353Z,4.80
2018-07-06T01:48:58.757Z,4.80
2018-07-06T01:51:44.249Z,4.87
2018-07-06T01:54:29.545Z,4.80
2018-07-06T01:57:14.957Z,4.70
2018-07-06T02:00:00.316Z,4.30
2018-07-06T02:02:45.716Z,5.03
2018-07-06T02:05:36.735Z,4.80
2018-07-06T02:08:22.009Z,4.70
2018-07-06T02:11:07.217Z,4.80
2018-07-06T02:13:52.655Z,5.10
2018-07-06T02:16:38.077Z,5.07
2018-07-06T02:19:23.282Z,5.13
2018-07-06T02:22:08.891Z,4.70
2018-07-06T02:24:54.289Z,5.00
2018-07-06T02:27:39.474Z,4.40
2018-07-06T02:30:24.704Z,5.57
2018-07-06T02:33:10.204Z,5.10
2018-07-06T02:35:55.871Z,4.90
2018-07-06T02:38:41.401Z,5.53
2018-07-06T02:41:26.822Z,5.00
2018-07-06T02:44:12.252Z,5.13
2018-07-06T02:46:57.634Z,5.57
2018-07-06T02:49:42.794Z,4.67
2018-07-06T02:52:28.202Z,4.80
2018-07-06T02:55:13.640Z,6.00
2018-07-06T02:57:58.926Z,4.93
2018-07-06T03:00:44.353Z,5.10
2018-07-06T03:03:29.735Z,5.47
2018-07-06T03:06:15.466Z,5.00
2018-07-06T03:08:55.489Z,5.33
2018-07-06T03:11:34.949Z,4.90
2018-07-06T03:14:20.282Z,4.80
2018-07-06T03:17:05.719Z,5.47
2018-07-06T03:19:51.246Z,5.40
2018-07-06T03:22:36.568Z,5.33
2018-07-06T03:25:21.899Z,5.30
2018-07-06T03:28:07.084Z,6.30
2018-07-06T03:30:52.427Z,5.00
2018-07-06T03:33:37.760Z,5.33
2018-07-06T03:36:23.197Z,5.10
2018-07-06T03:39:08.506Z,5.70
2018-07-06T03:41:53.902Z,5.40
2018-07-06T03:44:39.211Z,5.77
2018-07-06T03:47:18.673Z,6.03
2018-07-06T03:50:04.247Z,5.70
2018-07-06T03:52:49.586Z,6.07
2018-07-06T03:55:30.905Z,5.73
2018-07-06T03:58:16.250Z,5.67
2018-07-06T04:01:01.763Z,6.23
2018-07-06T04:03:47.098Z,5.60
2018-07-06T04:06:32.454Z,5.57
2018-07-06T04:09:17.643Z,6.67
2018-07-06T04:12:02.732Z,6.00
2018-07-06T04:14:48.015Z,5.27
2018-07-06T04:17:33.299Z,6.10
2018-07-06T04:20:18.730Z,5.57
2018-07-06T04:23:04.277Z,5.57
2018-07-06T04:25:49.669Z,5.90
2018-07-06T04:28:35.020Z,5.60
2018-07-06T04:31:20.327Z,5.10
2018-07-06T04:34:00.023Z,6.70
2018-07-06T04:36:45.494Z,5.50
2018-07-06T04:39:30.889Z,5.80
2018-07-06T04:42:16.172Z,6.20
2018-07-06T04:45:01.456Z,5.60
2018-07-06T04:47:46.677Z,6.23
2018-07-06T04:50:32.342Z,6.27
2018-07-06T04:53:17.630Z,6.23
2018-07-06T04:56:03.039Z,6.00
2018-07-06T04:58:48.328Z,6.10
2018-07-06T05:01:34.038Z,5.90
2018-07-06T05:04:19.329Z,5.83
2018-07-06T05:07:04.878Z,5.73
2018-07-06T05:09:50.240Z,6.43
2018-07-06T05:12:35.766Z,6.83
2018-07-06T05:15:21.258Z,6.40
2018-07-06T05:18:00.887Z,7.30
2018-07-06T05:20:40.485Z,7.03
2018-07-06T05:23:25.847Z,7.73
2018-07-06T05:26:11.227Z,6.30
2018-07-06T05:28:56.750Z,6.90
2018-07-06T05:31:42.197Z,7.03
2018-07-06T05:34:27.535Z,6.67
2018-07-06T05:37:12.851Z,7.00
2018-07-06T05:39:58.228Z,6.77
2018-07-06T05:42:43.510Z,6.50
2018-07-06T05:45:28.883Z,7.37
2018-07-06T05:48:14.254Z,6.60
2018-07-06T05:50:59.573Z,7.00
2018-07-06T05:53:44.931Z,7.30
2018-07-06T05:56:24.353Z,6.50
2018-07-06T05:59:04.047Z,6.20
2018-07-06T06:01:49.468Z,5.90
2018-07-06T06:04:34.897Z,6.57
2018-07-06T06:07:25.214Z,6.43
2018-07-06T06:09:52.889Z,7.30
2018-07-06T06:12:20.643Z,5.90
2018-07-06T06:14:48.863Z,6.70
2018-07-06T06:17:16.638Z,6.60
2018-07-06T06:19:44.543Z,6.80
2018-07-06T06:22:12.369Z,6.40
2018-07-06T06:24:40.316Z,6.07
2018-07-06T06:27:08.118Z,6.93
2018-07-06T06:29:36.290Z,6.40
2018-07-06T06:32:04.986Z,6.60
2018-07-06T06:34:32.954Z,7.00
2018-07-06T06:37:01.459Z,7.77
2018-07-06T06:39:29.664Z,7.13
2018-07-06T06:41:57.601Z,7.50
2018-07-06T06:44:25.380Z,6.43
2018-07-06T06:46:53.132Z,6.60
2018-07-06T06:49:20.939Z,6.70
2018-07-06T06:51:48.763Z,6.63
2018-07-06T06:54:16.614Z,6.47
2018-07-06T06:56:44.494Z,6.70
2018-07-06T06:59:12.695Z,6.83
2018-07-06T07:01:40.612Z,6.90
2018-07-06T07:04:08.513Z,7.53
2018-07-06T07:06:36.277Z,7.33
2018-07-06T07:09:04.671Z,7.73
2018-07-06T07:11:32.550Z,7.43
2018-07-06T07:14:00.476Z,7.60
2018-07-06T07:16:29.142Z,8.50
2018-07-06T07:18:57.062Z,9.07
2018-07-06T07:21:24.854Z,9.20
2018-07-06T07:23:52.672Z,8.90
2018-07-06T07:26:20.530Z,9.27
2018-07-06T07:28:48.417Z,9.30
2018-07-06T07:31:16.270Z,8.83
2018-07-06T07:33:44.089Z,9.20
2018-07-06T07:36:11.848Z,9.43
2018-07-06T07:38:39.706Z,9.00
2018-07-06T07:41:07.542Z,9.87
2018-07-06T07:43:35.290Z,11.27
2018-07-06T07:46:03.051Z,10.00
2018-07-06T07:48:30.849Z,9.90
2018-07-06T07:51:10.099Z,8.80
2018-07-06T07:53:49.330Z,8.83
2018-07-06T07:56:17.594Z,9.10
2018-07-06T07:58:45.405Z,9.30
2018-07-06T08:01:13.325Z,9.50
2018-07-06T08:03:41.099Z,9.97
2018-07-06T08:06:09.003Z,8.93
2018-07-06T08:08:37.158Z,8.57
2018-07-06T08:11:04.960Z,8.67
2018-07-06T08:13:32.668Z,7.70
2018-07-06T08:16:00.492Z,7.43
2018-07-06T08:18:28.248Z,7.60
2018-07-06T08:20:55.946Z,8.13
2018-07-06T08:23:23.683Z,7.90
2018-07-06T08:25:51.396Z,8.53
2018-07-06T08:28:19.357Z,7.93
2018-07-06T08:30:47.158Z,8.90
2018-07-06T08:33:15.198Z,8.60
2018-07-06T08:36:56.178Z,9.00
2018-07-06T08:39:24.159Z,9.00
2018-07-06T08:41:51.921Z,9.27
2018-07-06T08:44:21.216Z,8.90
2018-07-06T08:46:50.585Z,9.17
2018-07-06T08:49:20.335Z,9.07
2018-07-06T08:51:49.176Z,8.70
2018-07-06T08:54:18.847Z,8.23
2018-07-06T08:56:48.654Z,7.97
2018-07-06T08:59:17.598Z,7.67
2018-07-06T09:01:53.113Z,7.10
2018-07-06T09:04:22.302Z,6.47
2018-07-06T09:06:51.786Z,7.50
2018-07-06T09:09:20.539Z,7.27
2018-07-06T09:11:49.335Z,8.07
2018-07-06T09:14:18.294Z,7.37
2018-07-06T09:16:46.229Z,8.27
2018-07-06T09:19:14.152Z,8.70
2018-07-06T09:21:41.774Z,8.50
2018-07-06T09:24:09.591Z,8.17
2018-07-06T09:26:37.300Z,8.40
2018-07-06T09:29:05.056Z,9.60
2018-07-06T09:31:32.826Z,9.20
2018-07-06T09:34:00.600Z,9.60
2018-07-06T09:36:28.354Z,9.07
2018-07-06T09:38:56.114Z,8.73
2018-07-06T09:41:23.857Z,9.50
2018-07-06T09:43:51.759Z,7.57
2018-07-06T09:46:19.801Z,7.50
2018-07-06T09:48:48.406Z,7.63
2018-07-06T09:51:16.124Z,7.00
2018-07-06T09:53:43.918Z,7.60
2018-07-06T09:56:11.642Z,7.77
2018-07-06T09:58:39.430Z,7.27
2018-07-06T10:01:07.209Z,6.10
2018-07-06T10:03:35.074Z,6.00
2018-07-06T10:06:02.857Z,6.30
2018-07-06T10:08:30.653Z,6.90
2018-07-06T10:10:58.480Z,7.07
2018-07-06T10:13:26.195Z,6.57
2018-07-06T10:15:53.959Z,5.93
2018-07-06T10:18:21.686Z,6.80
2018-07-06T10:20:49.423Z,5.47
2018-07-06T10:23:17.219Z,6.13
2018-07-06T10:25:44.990Z,5.53
2018-07-06T10:28:27.009Z,4.60
2018-07-06T10:31:04.290Z,6.13
2018-07-06T10:33:32.146Z,5.97
2018-07-06T10:35:59.889Z,5.70
2018-07-06T10:38:27.649Z,5.50
2018-07-06T10:40:55.426Z,5.77
2018-07-06T10:43:23.137Z,6.17
2018-07-06T10:45:50.907Z,5.70
2018-07-06T10:48:18.756Z,5.77
2018-07-06T10:50:46.565Z,5.53
2018-07-06T10:53:14.312Z,5.73
2018-07-06T10:55:42.084Z,6.17
2018-07-06T10:58:09.858Z,5.33
2018-07-06T11:00:37.642Z,5.20
2018-07-06T11:03:05.486Z,6.23
2018-07-06T11:05:33.238Z,4.83
2018-07-06T11:08:01.129Z,4.67
2018-07-06T11:10:28.931Z,5.40
2018-07-06T11:12:56.656Z,4.80
2018-07-06T11:15:24.426Z,4.93
2018-07-06T11:17:52.067Z,5.30
2018-07-06T11:20:19.790Z,4.47
2018-07-06T11:22:47.507Z,4.60
2018-07-06T11:25:15.241Z,4.17
2018-07-06T11:27:43.007Z,3.90
2018-07-06T11:30:10.784Z,3.93
2018-07-06T11:32:38.753Z,3.83
2018-07-06T11:35:06.623Z,3.90
2018-07-06T11:37:34.331Z,4.40
2018-07-06T11:40:02.451Z,4.03
2018-07-06T11:42:30.216Z,3.77
2018-07-06T11:44:58.084Z,3.40
2018-07-06T11:47:25.807Z,3.70
2018-07-06T11:49:53.622Z,3.20
2018-07-06T11:52:21.326Z,2.97
2018-07-06T11:54:49.041Z,3.70
2018-07-06T11:57:16.753Z,3.33
2018-07-06T11:59:44.673Z,3.53
2018-07-06T12:02:12.442Z,2.77
2018-07-06T12:04:40.196Z,2.80
2018-07-06T12:07:08.007Z,2.50
2018-07-06T12:09:35.731Z,3.00
2018-07-06T12:12:03.523Z,2.87
2018-07-06T12:14:31.460Z,2.73
2018-07-06T12:16:59.161Z,2.77
2018-07-06T12:19:27.013Z,2.67
2018-07-06T12:21:54.782Z,3.13
2018-07-06T12:24:22.699Z,2.30
2018-07-06T12:26:50.462Z,2.70
2018-07-06T12:29:18.187Z,2.73
2018-07-06T12:31:45.961Z,2.60
2018-07-06T12:34:13.662Z,2.50
2018-07-06T12:36:41.414Z,2.53
2018-07-06T12:39:09.198Z,2.60
2018-07-06T12:41:36.955Z,2.77
2018-07-06T12:44:04.688Z,2.37
2018-07-06T12:46:32.887Z,3.17
2018-07-06T12:49:00.610Z,2.53
2018-07-06T12:51:28.631Z,2.60
2018-07-06T12:53:56.494Z,2.30
2018-07-06T12:56:24.267Z,1.93
2018-07-06T12:58:52.169Z,2.00
2018-07-06T13:01:19.891Z,1.73
2018-07-06T13:03:47.602Z,1.90
2018-07-06T13:06:15.643Z,2.20
2018-07-06T13:08:43.427Z,1.47
2018-07-06T13:11:11.241Z,1.80
2018-07-06T13:13:39.013Z,1.90
2018-07-06T13:16:06.831Z,1.97
2018-07-06T13:18:34.600Z,1.40
2018-07-06T13:21:02.444Z,1.60
2018-07-06T13:23:30.153Z,1.50
2018-07-06T13:25:58.455Z,1.60
2018-07-06T13:28:26.042Z,1.83
2018-07-06T13:30:53.792Z,1.80
2018-07-06T13:33:21.579Z,1.50
2018-07-06T13:35:49.299Z,1.70
2018-07-06T13:38:17.096Z,1.30
2018-07-06T13:40:45.118Z,1.83
2018-07-06T13:43:13.107Z,1.50
2018-07-06T13:45:40.841Z,1.40
2018-07-06T13:48:08.627Z,1.50
2018-07-06T13:50:36.406Z,1.30
2018-07-06T13:53:04.267Z,1.63
2018-07-06T13:55:31.943Z,1.53
2018-07-06T13:57:59.803Z,1.50
2018-07-06T14:00:27.550Z,1.23
2018-07-06T14:02:55.344Z,1.30
2018-07-06T14:05:23.137Z,1.50
2018-07-06T14:07:50.990Z,1.43
2018-07-06T14:10:18.754Z,1.20
2018-07-06T14:12:46.521Z,1.53
2018-07-06T14:15:14.234Z,1.30
2018-07-06T14:17:41.941Z,1.60
2018-07-06T14:20:09.706Z,1.57
2018-07-06T14:22:37.503Z,1.20
2018-07-06T14:25:05.339Z,1.40
2018-07-06T14:27:33.074Z,1.17
2018-07-06T14:30:00.761Z,1.40
2018-07-06T14:32:28.623Z,1.50
2018-07-06T14:34:56.428Z,1.20
2018-07-06T14:37:24.253Z,1.43
2018-07-06T14:39:52.022Z,1.63
2018-07-06T14:42:19.813Z,1.67
2018-07-06T14:44:47.553Z,1.73
2018-07-06T14:47:15.354Z,1.83
2018-07-06T14:49:43.122Z,1.97
2018-07-06T14:52:10.885Z,2.43
2018-07-06T14:54:38.656Z,2.90
2018-07-06T14:57:06.399Z,3.40
2018-07-06T14:59:34.123Z,3.20
2018-07-06T15:02:01.942Z,3.27
2018-07-06T15:04:29.711Z,3.33
2018-07-06T15:06:57.540Z,2.70
2018-07-06T15:09:25.294Z,3.30
2018-07-06T15:11:53.059Z,2.93
2018-07-06T15:14:20.818Z,3.23
2018-07-06T15:16:48.578Z,2.57
2018-07-06T15:19:16.342Z,2.50
2018-07-06T15:21:44.125Z,2.47
2018-07-06T15:24:11.860Z,2.50
2018-07-06T15:26:39.902Z,1.50
2018-07-06T15:29:07.644Z,1.70
2018-07-06T15:31:35.478Z,1.60
2018-07-06T15:34:03.798Z,1.90
2018-07-06T15:36:31.527Z,1.93
2018-07-06T15:38:59.325Z,2.40
2018-07-06T15:41:27.095Z,1.70
2018-07-06T15:43:54.795Z,2.17
2018-07-06T15:46:22.529Z,1.47
2018-07-06T15:48:50.278Z,1.50
2018-07-06T15:51:17.994Z,1.33
2018-07-06T15:53:45.803Z,1.40
2018-07-06T15:56:13.517Z,1.27
2018-07-06T15:58:41.279Z,1.30
2018-07-06T16:01:09.045Z,1.17
2018-07-06T16:03:36.811Z,1.80
2018-07-06T16:06:04.732Z,1.80
2018-07-06T16:08:32.404Z,2.97
2018-07-06T16:11:00.105Z,1.50
2018-07-06T16:13:27.894Z,1.70
2018-07-06T16:15:55.966Z,1.70
2018-07-06T16:18:23.748Z,1.53
2018-07-06T16:20:51.466Z,1.47
2018-07-06T16:23:19.371Z,1.57
2018-07-06T16:25:47.085Z,1.50
2018-07-06T16:28:14.921Z,1.57
2018-07-06T16:30:42.598Z,1.53
2018-07-06T16:33:10.395Z,1.60
2018-07-06T16:35:38.138Z,1.33
2018-07-06T16:38:05.900Z,1.63
2018-07-06T16:40:33.635Z,1.53
2018-07-06T16:43:01.419Z,1.63
2018-07-06T16:45:29.198Z,1.83
2018-07-06T16:47:56.917Z,1.50
2018-07-06T16:50:24.674Z,1.53
2018-07-06T16:52:52.384Z,1.50
2018-07-06T16:55:20.162Z,1.63
2018-07-06T16:57:47.885Z,1.50
2018-07-06T17:00:15.863Z,1.93
2018-07-06T17:02:43.674Z,1.50
2018-07-06T17:05:11.406Z,1.90
2018-07-06T17:07:39.164Z,1.50
2018-07-06T17:10:07.080Z,1.43
2018-07-06T17:12:34.843Z,1.90
2018-07-06T17:15:02.614Z,1.57
2018-07-06T17:17:30.325Z,1.20
2018-07-06T17:19:58.085Z,1.70
2018-07-06T17:22:25.851Z,1.97
2018-07-06T17:24:53.670Z,1.57
2018-07-06T17:27:21.413Z,1.40
2018-07-06T17:29:49.144Z,1.50
2018-07-06T17:32:16.898Z,1.63
2018-07-06T17:34:44.808Z,1.73
2018-07-06T17:37:12.641Z,1.70
2018-07-06T17:39:40.524Z,1.77
2018-07-06T17:42:08.841Z,1.60
2018-07-06T17:44:36.502Z,1.60
2018-07-06T17:47:06.064Z,1.47
2018-07-06T17:49:33.857Z,2.20
2018-07-06T17:52:01.708Z,1.60
2018-07-06T17:54:29.506Z,2.00
2018-07-06T17:56:57.210Z,1.20
2018-07-06T17:59:25.019Z,1.57
2018-07-06T18:01:53.005Z,1.90
2018-07-06T18:04:20.683Z,2.00
2018-07-06T18:06:48.501Z,2.00
2018-07-06T18:09:16.260Z,1.73
2018-07-06T18:11:44.088Z,1.90
2018-07-06T18:14:11.890Z,1.70
2018-07-06T18:16:40.506Z,2.00
2018-07-06T18:19:08.311Z,1.93
2018-07-06T18:21:36.121Z,1.73
2018-07-06T18:24:03.960Z,1.60
2018-07-06T18:26:31.834Z,2.10
2018-07-06T18:28:59.614Z,1.90
2018-07-06T18:31:27.441Z,1.93
2018-07-06T18:33:55.449Z,1.80
2018-07-06T18:36:23.262Z,2.30
2018-07-06T18:38:51.027Z,2.10
2018-07-06T18:41:18.791Z,2.07
2018-07-06T18:43:46.739Z,2.40
2018-07-06T18:46:14.523Z,1.70
2018-07-06T18:48:42.426Z,2.13
2018-07-06T18:51:10.163Z,1.57
2018-07-06T18:53:38.014Z,1.97
2018-07-06T18:56:05.832Z,1.90
2018-07-06T18:58:33.645Z,2.33
2018-07-06T19:01:01.379Z,1.97
2018-07-06T19:03:29.286Z,1.80
2018-07-06T19:05:57.356Z,1.80
2018-07-06T19:08:25.165Z,2.13
2018-07-06T19:10:52.922Z,1.83
2018-07-06T19:13:20.694Z,2.20
2018-07-06T19:15:48.500Z,1.60
2018-07-06T19:18:16.319Z,1.50
2018-07-06T19:20:44.143Z,1.77
2018-07-06T19:23:12.074Z,1.80
2018-07-06T19:25:40.630Z,1.70
2018-07-06T19:28:08.406Z,2.60
2018-07-06T19:30:36.170Z,2.00
2018-07-06T19:33:04.347Z,2.07
2018-07-06T19:35:32.030Z,1.97
2018-07-06T19:37:59.825Z,2.57
2018-07-06T19:40:27.585Z,2.37
2018-07-06T19:42:55.349Z,2.30
2018-07-06T19:45:23.274Z,2.10
2018-07-06T19:47:51.170Z,2.50
2018-07-06T19:50:18.999Z,2.57
2018-07-06T19:52:46.862Z,2.60
2018-07-06T19:55:14.633Z,2.63
2018-07-06T19:57:42.454Z,4.33
2018-07-06T20:00:10.857Z,2.50
2018-07-06T20:02:38.737Z,3.10
2018-07-06T20:05:06.642Z,2.57
2018-07-06T20:07:34.465Z,2.20
2018-07-06T20:10:02.291Z,2.57
2018-07-06T20:12:30.190Z,2.50
2018-07-06T20:14:58.379Z,2.20
2018-07-06T20:17:26.078Z,2.30
2018-07-06T20:19:53.850Z,2.53
2018-07-06T20:22:21.613Z,2.40
2018-07-06T20:24:49.419Z,2.30
2018-07-06T20:27:17.459Z,2.67
2018-07-06T20:29:45.254Z,3.00
2018-07-06T20:32:13.065Z,2.80
2018-07-06T20:34:40.875Z,2.50
2018-07-06T20:37:08.725Z,2.47
2018-07-06T20:39:36.790Z,3.03
2018-07-06T20:42:04.782Z,2.70
2018-07-06T20:44:32.556Z,2.80
2018-07-06T20:47:00.317Z,2.70
2018-07-06T20:49:28.089Z,37.60
2018-07-06T20:51:55.792Z,3.00
2018-07-06T20:54:23.563Z,3.87
2018-07-06T20:56:51.677Z,3.20
2018-07-06T20:59:19.399Z,2.60
2018-07-06T21:01:47.164Z,2.60
2018-07-06T21:04:14.923Z,3.13
2018-07-06T21:06:43.760Z,3.00
2018-07-06T21:09:11.571Z,2.93
2018-07-06T21:11:39.354Z,3.20
2018-07-06T21:14:07.149Z,3.37
2018-07-06T21:16:34.933Z,3.53
2018-07-06T21:19:02.590Z,2.80
2018-07-06T21:21:30.286Z,3.13
2018-07-06T21:23:58.005Z,3.43
2018-07-06T21:26:25.819Z,2.90
2018-07-06T21:28:53.743Z,3.80
2018-07-06T21:31:21.538Z,3.73
2018-07-06T21:33:49.309Z,3.27
2018-07-06T21:36:17.492Z,3.40
2018-07-06T21:38:45.201Z,3.30
2018-07-06T21:41:12.955Z,3.30
2018-07-06T21:43:40.711Z,3.40
2018-07-06T21:46:08.486Z,3.83
2018-07-06T21:48:36.275Z,3.03
2018-07-06T21:51:04.153Z,3.40
2018-07-06T21:53:31.883Z,3.10
2018-07-06T21:55:59.646Z,3.47
2018-07-06T21:58:27.372Z,4.03
2018-07-06T22:00:55.117Z,3.50
2018-07-06T22:03:22.895Z,3.07
2018-07-06T22:05:50.660Z,3.17
2018-07-06T22:08:18.460Z,3.80
2018-07-06T22:10:46.490Z,3.03
2018-07-06T22:13:14.335Z,2.57
2018-07-06T22:15:44.095Z,2.90
2018-07-06T22:18:13.615Z,3.80
2018-07-06T22:20:42.120Z,3.50
2018-07-06T22:23:09.879Z,3.40
2018-07-06T22:25:37.710Z,3.77
2018-07-06T22:28:05.488Z,3.27
2018-07-06T22:30:33.571Z,3.87
2018-07-06T22:33:01.430Z,3.20
2018-07-06T22:35:29.162Z,3.17
2018-07-06T22:37:57.003Z,4.17
2018-07-06T22:40:24.892Z,4.00
2018-07-06T22:42:52.687Z,3.07
2018-07-06T22:45:20.436Z,4.07
2018-07-06T22:47:48.231Z,3.93
2018-07-06T22:50:15.937Z,3.70
2018-07-06T22:52:43.703Z,3.30
2018-07-06T22:55:11.455Z,3.90
2018-07-06T22:57:39.266Z,4.60
2018-07-06T23:00:07.405Z,4.57
2018-07-06T23:02:35.650Z,4.00
2018-07-06T23:05:13.809Z,4.40
2018-07-06T23:07:41.574Z,3.40
2018-07-06T23:10:09.266Z,3.90
2018-07-06T23:12:37.845Z,3.63
2018-07-06T23:15:05.647Z,4.63
2018-07-06T23:17:33.823Z,3.90
2018-07-06T23:20:01.638Z,4.20
2018-07-06T23:22:35.173Z,4.03
2018-07-06T23:25:03.047Z,3.50
2018-07-06T23:27:30.814Z,3.27
2018-07-06T23:29:58.617Z,4.30
2018-07-06T23:32:26.404Z,4.50
2018-07-06T23:34:54.716Z,3.50
2018-07-06T23:37:22.534Z,3.70
2018-07-06T23:39:50.559Z,4.30
2018-07-06T23:42:18.275Z,4.17
2018-07-06T23:44:45.980Z,3.80
2018-07-06T23:47:13.730Z,3.90
2018-07-06T23:49:41.510Z,3.57
2018-07-06T23:52:09.276Z,4.40
2018-07-06T23:54:37.030Z,3.83
2018-07-06T23:57:04.886Z,3.83
2018-07-06T23:59:32.664Z,3.60
